Time;durP1;ratioP1;P1;durP2;ratioP2;P2;SDS_P1;SDS_P2;PMS_P1;PMS_P2;Temp;Humidity;BMP_temperature;BMP_pressure;BME280_temperature;BME280_humidity;BME280_pressure;Samples;Min_cycle;Max_cycle;Signal;HPM_P1;HPM_P2
2021/06/03 00:02:19;;;;;;;10.75;6.00;;;;;;;;;;5094158;28;20032;-67
2021/06/03 00:04:45;;;;;;;7.35;5.72;;;;;;;;;;5094389;28;20082;-68
2021/06/03 00:07:12;;;;;;;7.25;6.03;;;;;;;;;;5094486;28;20024;-68
2021/06/03 00:09:38;;;;;;;9.40;5.82;;;;;;;;;;5094202;28;20095;-68
2021/06/03 00:12:05;;;;;;;10.40;6.13;;;;;;;;;;5094552;28;20439;-69
2021/06/03 00:14:31;;;;;;;9.43;5.97;;;;;;;;;;5094234;28;20093;-72
2021/06/03 00:16:57;;;;;;;9.30;6.10;;;;;;;;;;5094161;28;20386;-68
2021/06/03 00:19:24;;;;;;;8.55;6.05;;;;;;;;;;5094179;28;20031;-70
2021/06/03 00:21:50;;;;;;;8.82;5.72;;;;;;;;;;5094002;28;20425;-67
2021/06/03 00:24:16;;;;;;;9.13;5.90;;;;;;;;;;5094120;28;20437;-68
2021/06/03 00:26:42;;;;;;;6.97;5.28;;;;;;;;;;5093952;28;20026;-67
2021/06/03 00:29:11;;;;;;;7.57;6.10;;;;;;;;;;5092622;28;20024;-68
2021/06/03 00:31:37;;;;;;;7.57;5.35;;;;;;;;;;5094236;28;20027;-70
2021/06/03 00:34:03;;;;;;;10.90;5.82;;;;;;;;;;5093975;28;20013;-68
2021/06/03 00:36:29;;;;;;;8.43;5.63;;;;;;;;;;5093720;28;20058;-69
2021/06/03 00:38:55;;;;;;;7.90;5.85;;;333.40;1894.40;;;;;;5093831;28;20016;-69
2021/06/03 00:41:21;;;;;;;8.63;5.72;;;333.40;1868.80;;;;;;5093583;28;20374;-68
2021/06/03 00:43:47;;;;;;;6.85;5.30;;;;;;;;;;5093435;28;20036;-68
2021/06/03 00:46:14;;;;;;;7.85;5.97;;;;;;;;;;5093706;28;20035;-68
2021/06/03 00:48:40;;;;;;;5.97;5.35;;;;;;;;;;5093467;28;20024;-72
2021/06/03 00:51:08;;;;;;;6.53;5.55;;;;;;;;;;5093580;28;20023;-71
2021/06/03 00:53:35;;;;;;;7.25;5.18;;;;;;;;;;5093711;28;20020;-67
2021/06/03 00:56:01;;;;;;;6.65;5.93;;;;;;;;;;5093449;28;20024;-67
2021/06/03 00:58:28;;;;;;;8.40;5.60;;;;;;;;;;5093324;28;20059;-68
2021/06/03 01:00:54;;;;;;;9.55;5.63;;;;;;;;;;5093324;28;20454;-68
2021/06/03 01:03:22;;;;;;;9.30;5.68;;;;;;;;;;5093161;28;20040;-67
2021/06/03 01:05:49;;;;;;;7.43;5.93;;;;;;;;;;5093206;28;20073;-68
2021/06/03 01:08:17;;;;;;;6.70;5.53;;;;;;;;;;5091878;28;20466;-68
2021/06/03 01:10:48;;;;;;;8.15;5.60;;;;;;;;;;5093275;28;20099;-68
2021/06/03 01:13:23;;;;;;;9.37;5.93;;;;;;;;;;5093143;28;20099;-68
2021/06/03 01:15:50;;;;;;;9.55;5.90;;;;;;;;;;5093046;28;20107;-68
2021/06/03 01:18:17;;;;;;;7.60;5.40;;;;;;;;;;5092920;28;20095;-69
2021/06/03 01:20:46;;;;;;;7.80;5.82;;;;;;;;;;5093140;28;20123;-69
2021/06/03 01:23:32;;;;;;;9.50;6.05;;;;;;;;;;5093165;28;21679;-71
2021/06/03 01:25:59;;;;;;;10.07;5.88;;;333.60;1868.80;;;;;;5092844;28;20040;-67
2021/06/03 01:28:25;;;;;;;13.52;6.25;;;;;;;;;;5091408;28;20076;-72
2021/06/03 01:30:54;;;;;;;6.55;5.78;;;;;;;;;;5092647;28;20104;-70
2021/06/03 01:33:27;;;;;;;7.82;5.07;;;;;;;;;;5092747;28;20035;-72
2021/06/03 01:35:55;;;;;;;8.95;5.85;;;;;;;;;;5092866;28;20103;-68
2021/06/03 01:38:24;;;;;;;6.72;5.18;;;;;;;;;;5092674;28;20069;-67
2021/06/03 01:40:51;;;;;;;9.55;5.50;;;;;;;;;;5092771;28;20028;-69
2021/06/03 01:43:18;;;;;;;6.47;5.22;;;;;;;;;;5092481;28;20048;-68
2021/06/03 01:45:45;;;;;;;7.25;5.53;;;;;;;;;;5092722;28;20020;-72
2021/06/03 01:48:15;;;;;;;7.75;5.25;;;;;;;;;;5092700;28;20024;-69
2021/06/03 01:50:41;;;;;;;5.78;4.88;;;;;;;;;;5092563;28;20043;-68
2021/06/03 01:53:08;;;;;;;14.02;6.10;;;;;;;;;;5091401;28;20123;-68
2021/06/03 01:55:34;;;;;;;9.65;5.30;;;;;;;;;;5092520;28;20356;-67
2021/06/03 01:58:01;;;;;;;14.68;5.03;;;;;;;;;;5092787;28;20024;-68
2021/06/03 02:00:28;;;;;;;5.68;4.80;;;;;;;;;;5092448;28;20047;-69
2021/06/03 02:02:54;;;;;;;6.03;4.82;;;;;;;;;;5092427;28;20386;-68
2021/06/03 02:05:21;;;;;;;8.27;5.40;;;;;;;;;;5092405;28;20028;-68
2021/06/03 02:07:47;;;;;;;6.15;4.93;;;358.40;2073.60;;;;;;5092443;28;20056;-67
2021/06/03 02:10:15;;;;;;;6.07;4.90;;;;;;;;;;5092990;28;20478;-68
2021/06/03 02:12:44;;;;;;;8.05;5.00;;;;;;;;;;5092225;28;20571;-68
2021/06/03 02:15:10;;;;;;;8.30;5.35;;;;;;;;;;5092276;28;20032;-68
2021/06/03 02:17:40;;;;;;;6.65;5.07;;;;;;;;;;5092501;28;20497;-68
2021/06/03 02:20:11;;;;;;;8.07;4.93;;;;;;;;;;5092333;28;20024;-67
2021/06/03 02:22:38;;;;;;;6.13;5.00;;;;;;;;;;5092446;28;20173;-68
2021/06/03 02:25:07;;;;;;;6.05;5.05;;;;;;;;;;5092169;28;20077;-68
2021/06/03 02:27:34;;;;;;;6.22;4.60;;;;;;;;;;5092174;28;20024;-67
2021/06/03 02:30:00;;;;;;;7.80;5.05;;;;;;;;;;5092102;28;20225;-68
2021/06/03 02:32:29;;;;;;;6.22;4.97;;;;;;;;;;5092275;28;20490;-68
2021/06/03 02:34:55;;;;;;;7.07;4.88;;;;;;;;;;5092144;28;20028;-69
2021/06/03 02:37:22;;;;;;;6.80;4.65;;;;;;;;;;5092271;28;20028;-68
2021/06/03 02:39:49;;;;;;;6.20;5.15;;;;;;;;;;5092039;28;20486;-68
2021/06/03 02:42:16;;;;;;;8.23;5.13;;;;;;;;;;5094147;28;20487;-72
2021/06/03 02:44:42;;;;;;;6.88;4.88;;;;;;;;;;5095884;28;20071;-68
2021/06/03 02:47:09;;;;;;;8.25;5.20;;;;;;;;;;5095877;28;20056;-68
2021/06/03 02:49:35;;;;;;;6.93;5.18;;;;;;;;;;5094639;28;20094;-68
2021/06/03 02:52:02;;;;;;;9.52;5.35;;;;;;;;;;5095841;28;20028;-67
2021/06/03 02:54:29;;;;;;;6.65;5.22;;;;;;;;;;5095874;28;20490;-67
2021/06/03 02:56:55;;;;;;;7.07;5.30;;;;;;;;;;5095726;28;20024;-69
2021/06/03 02:59:22;;;;;;;7.53;5.07;;;;;;;;;;5095706;28;20044;-72
2021/06/03 03:01:48;;;;;;;7.70;5.40;;;;;;;;;;5095630;28;20047;-70
2021/06/03 03:04:14;;;;;;;7.43;5.35;;;;;;;;;;5095228;28;20058;-67
2021/06/03 03:06:40;;;;;;;8.27;5.13;;;;;;;;;;5095681;28;20081;-67
2021/06/03 03:09:06;;;;;;;6.43;4.95;;;;;;;;;;5095416;28;20059;-68
2021/06/03 03:11:32;;;;;;;10.50;5.07;;;;;;;;;;5095340;28;20028;-68
2021/06/03 03:13:59;;;;;;;5.95;4.28;;;;;;;;;;5095510;28;20546;-67
2021/06/03 03:16:25;;;;;;;6.63;4.68;;;;;;;;;;5095500;28;20024;-68
2021/06/03 03:18:51;;;;;;;8.15;4.75;;;;;;;;;;5095455;28;20054;-72
2021/06/03 03:21:17;;;;;;;8.50;4.88;;;;;;;;;;5095172;28;20035;-67
2021/06/03 03:23:44;;;;;;;6.30;4.80;;;;;;;;;;5095459;28;20042;-71
2021/06/03 03:26:10;;;;;;;5.53;4.47;;;;;;;;;;5095158;28;20016;-67
2021/06/03 03:28:36;;;;;;;6.97;4.68;;;;;;;;;;5093716;28;20425;-71
2021/06/03 03:31:02;;;;;;;8.55;5.32;;;;;;;;;;5095091;28;20028;-67
2021/06/03 03:33:28;;;;;;;6.82;5.00;;;;;;;;;;5095046;28;20385;-68
2021/06/03 03:35:55;;;;;;;10.75;5.55;;;;;;;;;;5094055;28;20374;-68
2021/06/03 03:38:22;;;;;;;7.53;4.85;;;;;;;;;;5094861;28;20107;-68
2021/06/03 03:40:48;;;;;;;8.95;5.53;;;;;;;;;;5094753;28;20065;-68
2021/06/03 03:43:15;;;;;;;11.85;5.15;;;;;;;;;;5094668;28;20135;-68
2021/06/03 03:45:41;;;;;;;10.77;5.80;;;;;;;;;;5094824;28;20035;-67
2021/06/03 03:48:07;;;;;;;8.07;5.40;;;;;;;;;;5094809;28;20035;-67
2021/06/03 03:50:34;;;;;;;8.20;4.93;;;;;;;;;;5094718;28;20072;-70
2021/06/03 03:53:01;;;;;;;6.55;4.72;;;;;;;;;;5093025;28;20024;-68
2021/06/03 03:55:27;;;;;;;6.90;4.78;;;;;;;;;;5080224;28;20028;-68
2021/06/03 03:57:53;;;;;;;7.70;4.50;;;;;;;;;;5094610;28;20020;-68
2021/06/03 04:00:22;;;;;;;8.30;5.10;;;;;;;;;;5094359;28;20020;-67
2021/06/03 04:02:48;;;;;;;9.20;5.00;;;;;;;;;;5094419;28;20028;-68
2021/06/03 04:05:14;;;;;;;12.65;6.57;;;;;;;;;;5094745;28;20125;-72
2021/06/03 04:07:41;;;;;;;8.20;5.20;;;;;;;;;;5094492;28;20028;-72
2021/06/03 04:10:09;;;;;;;6.13;4.93;;;;;;;;;;5093192;28;20024;-69
2021/06/03 04:12:35;;;;;;;6.47;5.78;;;;;;;;;;5094331;28;20031;-69
2021/06/03 04:15:01;;;;;;;12.52;6.38;;;;;;;;;;5094101;28;20502;-69
2021/06/03 04:17:28;;;;;;;9.70;5.90;;;;;;;;;;5094103;28;20474;-69
2021/06/03 04:19:54;;;;;;;6.45;5.43;;;;;;;;;;5094020;28;20051;-69
2021/06/03 04:22:21;;;;;;;10.75;6.05;;;;;;;;;;5094102;28;20020;-67
2021/06/03 04:24:47;;;;;;;7.47;5.60;;;;;;;;;;5092500;28;20067;-69
2021/06/03 04:27:12;;;;;;;11.23;7.80;;;358.80;1766.40;;;;;;5094000;28;20028;-67
2021/06/03 04:29:39;;;;;;;8.50;6.32;;;;;;;;;;5093729;28;20085;-68
2021/06/03 04:32:05;;;;;;;9.93;6.20;;;;;;;;;;5093908;28;20028;-67
2021/06/03 04:34:31;;;;;;;23.27;12.95;;;;;;;;;;5093909;28;20470;-68
2021/06/03 04:36:59;;;;;;;11.98;7.35;;;;;;;;;;5093771;28;20442;-67
2021/06/03 04:39:25;;;;;;;9.63;5.68;;;;;;;;;;5093353;28;20020;-68
2021/06/03 04:41:51;;;;;;;7.72;5.50;;;;;;;;;;5093435;28;20070;-68
2021/06/03 04:44:17;;;;;;;7.28;5.30;;;;;;;;;;5092342;28;20044;-70
2021/06/03 04:46:43;;;;;;;9.40;6.13;;;;;;;;;;5093343;28;20020;-72
2021/06/03 04:49:09;;;;;;;18.83;6.97;;;;;;;;;;5093648;28;20045;-68
2021/06/03 04:51:38;;;;;;;9.18;5.40;;;;;;;;;;5075579;28;20493;-67
2021/06/03 04:54:05;;;;;;;8.25;5.30;;;;;;;;;;5093285;28;20068;-68
2021/06/03 04:56:32;;;;;;;7.95;5.13;;;;;;;;;;5093464;28;20020;-67
2021/06/03 04:58:58;;;;;;;9.68;5.93;;;;;;;;;;5093291;28;20386;-70
2021/06/03 05:01:24;;;;;;;12.32;5.75;;;;;;;;;;5093275;28;20467;-71
2021/06/03 05:03:50;;;;;;;13.55;6.00;;;;;;;;;;5091027;28;20134;-68
2021/06/03 05:06:16;;;;;;;7.28;5.43;;;;;;;;;;5090873;28;20024;-68
2021/06/03 05:08:42;;;;;;;7.40;5.43;;;;;;;;;;5083625;28;20425;-69
2021/06/03 05:11:08;;;;;;;6.90;5.32;;;;;;;;;;5088405;28;20386;-69
2021/06/03 05:13:34;;;;;;;10.18;5.75;;;;;;;;;;5093304;28;20086;-67
2021/06/03 05:16:01;;;;;;;12.15;6.47;;;;;;;;;;5093103;28;20024;-68
2021/06/03 05:18:27;;;;;;;7.60;5.20;;;;;;;;;;5067175;28;20056;-67
2021/06/03 05:20:53;;;;;;;12.55;5.53;;;;;;;;;;5072043;28;20071;-66
2021/06/03 05:23:20;;;;;;;9.27;5.47;;;;;;;;;;5072128;28;20032;-66
2021/06/03 05:25:47;;;;;;;19.25;6.50;;;;;;;;;;5071981;28;20028;-66
2021/06/03 05:28:13;;;;;;;7.57;5.03;;;;;;;;;;5073976;28;20096;-67
2021/06/03 05:30:39;;;;;;;12.20;5.88;;;410.20;1664.00;;;;;;5058558;28;20060;-68
2021/06/03 05:33:06;;;;;;;11.82;7.43;;;410.10;1664.00;;;;;;5066125;28;20063;-66
2021/06/03 05:35:32;;;;;;;19.38;10.32;;;410.20;1638.40;;;;;;5071877;28;20074;-65
2021/06/03 05:37:58;;;;;;;11.90;6.20;;;410.30;1638.40;;;;;;5071805;28;20060;-65
2021/06/03 05:40:25;;;;;;;10.07;5.40;;;;;;;;;;5067043;28;20051;-67
2021/06/03 05:42:52;;;;;;;8.30;5.10;;;;;;;;;;5068780;28;20049;-66
2021/06/03 05:45:18;;;;;;;7.03;5.72;;;;;;;;;;5071667;28;20430;-66
2021/06/03 05:47:45;;;;;;;14.27;7.25;;;;;;;;;;5071539;28;20015;-68
2021/06/03 05:50:12;;;;;;;10.30;7.13;;;;;;;;;;5072008;28;20028;-69
2021/06/03 05:52:40;;;;;;;47.10;21.52;;;;;;;;;;5070372;28;20032;-66
2021/06/03 05:55:06;;;;;;;16.98;9.43;;;;;;;;;;5062447;28;20503;-67
2021/06/03 05:57:33;;;;;;;27.35;12.68;;;;;;;;;;5071130;28;20035;-70
2021/06/03 05:59:59;;;;;;;22.77;9.07;;;;;;;;;;5071583;28;20159;-68
2021/06/03 06:02:32;;;;;;;15.73;8.00;;;;;;;;;;5071416;28;20467;-71
2021/06/03 06:07:43;;;;;;;36.03;19.52;;;;;;;;;;5061565;28;20565;-71
2021/06/03 06:10:09;;;;;;;36.85;18.90;;;;;;;;;;5054164;28;20365;-72
2021/06/03 06:12:35;;;;;;;18.13;10.18;;;460.90;1536.00;;;;;;5053982;28;20383;-71
2021/06/03 06:15:02;;;;;;;14.38;9.95;;;460.80;1536.00;;;;;;5057396;28;20025;-71
2021/06/03 06:17:28;;;;;;;11.70;7.50;;;460.80;1536.00;;;;;;5063751;28;20036;-72
2021/06/03 06:19:54;;;;;;;22.13;8.05;;;461.00;1510.40;;;;;;5069253;28;20398;-66
2021/06/03 06:22:19;;;;;;;19.15;9.40;;;461.00;1510.40;;;;;;5055259;28;20025;-73
2021/06/03 06:24:47;;;;;;;25.83;14.02;;;461.00;1536.00;;;;;;5056384;28;20376;-69
2021/06/03 06:27:13;;;;;;;15.80;9.48;;;;;;;;;;5061972;28;20036;-71
2021/06/03 06:29:39;;;;;;;20.05;8.07;;;;;;;;;;5075383;28;20039;-75
2021/06/03 06:32:05;;;;;;;19.48;11.90;;;461.50;1484.80;;;;;;5075211;28;20021;-72
2021/06/03 06:34:31;;;;;;;43.83;21.35;;;461.50;1484.80;;;;;;5074468;28;20029;-67
2021/06/03 06:36:57;;;;;;;25.08;13.80;;;;;;;;;;5055854;28;20021;-68
2021/06/03 06:39:23;;;;;;;11.73;8.43;;;;;;;;;;5058906;28;20067;-66
2021/06/03 06:41:49;;;;;;;18.55;9.65;;;486.60;1459.20;;;;;;5057410;28;20041;-64
2021/06/03 06:44:15;;;;;;;19.40;9.43;;;;;;;;;;5055784;28;20048;-64
2021/06/03 06:46:41;;;;;;;16.13;8.35;;;;;;;;;;5055561;28;20017;-65
2021/06/03 06:49:07;;;;;;;11.30;6.65;;;;;;;;;;5070758;28;20103;-64
2021/06/03 06:51:33;;;;;;;10.32;6.10;;;;;;;;;;5075216;28;20482;-65
2021/06/03 06:54:00;;;;;;;15.93;7.88;;;;;;;;;;5074773;28;20095;-65
2021/06/03 06:56:26;;;;;;;15.98;8.48;;;;;;;;;;5075017;28;20100;-66
2021/06/03 06:58:52;;;;;;;14.20;8.77;;;;;;;;;;5074667;28;20095;-66
2021/06/03 07:01:18;;;;;;;15.85;6.90;;;;;;;;;;5074778;28;20040;-65
2021/06/03 07:03:44;;;;;;;9.13;5.57;;;;;;;;;;5075116;28;20040;-67
2021/06/03 07:06:10;;;;;;;11.10;6.80;;;;;;;;;;5091643;28;20047;-62
2021/06/03 07:08:36;;;;;;;13.48;6.00;;;;;;;;;;5095150;28;20020;-63
2021/06/03 07:11:02;;;;;;;16.98;9.80;;;;;;;;;;5094882;28;20103;-67
2021/06/03 07:13:28;;;;;;;8.88;4.82;;;;;;;;;;5094971;28;20036;-65
2021/06/03 07:15:54;;;;;;;17.20;6.57;;;;;;;;;;5095129;28;20028;-64
2021/06/03 07:18:21;;;;;;;7.93;5.05;;;;;;;;;;5090643;28;20073;-66
2021/06/03 07:20:47;;;;;;;12.90;6.43;;;;;;;;;;5095110;28;20478;-66
2021/06/03 07:23:14;;;;;;;12.05;6.10;;;;;;;;;;5094660;28;20405;-68
2021/06/03 07:25:40;;;;;;;34.35;14.20;;;;;;;;;;5094962;28;20032;-67
2021/06/03 07:28:07;;;;;;;9.98;5.30;;;;;;;;;;5093994;28;20027;-67
2021/06/03 07:30:33;;;;;;;9.27;5.57;;;;;;;;;;5094882;28;20382;-64
2021/06/03 07:33:00;;;;;;;14.07;6.68;;;;;;;;;;5094690;28;20024;-67
2021/06/03 07:35:27;;;;;;;11.63;5.35;;;;;;;;;;5094511;28;20493;-65
2021/06/03 07:37:53;;;;;;;15.02;5.93;;;;;;;;;;5093433;28;20020;-64
2021/06/03 07:40:21;;;;;;;18.05;5.40;;;;;;;;;;5094582;28;20052;-62
2021/06/03 07:42:48;;;;;;;14.43;6.63;;;;;;;;;;5094393;28;20044;-61
2021/06/03 07:45:16;;;;;;;22.55;11.02;;;;;;;;;;5094666;28;20032;-66
2021/06/03 07:47:42;;;;;;;21.13;11.55;;;;;;;;;;5090929;28;20024;-63
2021/06/03 07:50:09;;;;;;;19.92;8.45;;;;;;;;;;5088851;28;20055;-65
2021/06/03 07:52:36;;;;;;;24.73;12.88;;;;;;;;;;5094568;28;20069;-63
2021/06/03 07:55:04;;;;;;;14.20;7.93;;;;;;;;;;5094348;28;20038;-62
2021/06/03 07:57:30;;;;;;;22.65;12.48;;;;;;;;;;5094050;28;20024;-62
2021/06/03 07:59:56;;;;;;;11.32;5.15;;;;;;;;;;5094281;28;20028;-67
2021/06/03 08:02:23;;;;;;;16.77;6.30;;;;;;;;;;5092835;28;20020;-68
2021/06/03 08:04:49;;;;;;;18.70;10.35;;;;;;;;;;5093940;28;20032;-63
2021/06/03 08:07:14;;;;;;;14.15;9.45;;;563.60;1126.40;;;;;;5094433;28;20070;-65
2021/06/03 08:09:41;;;;;;;19.50;10.65;;;563.50;1126.40;;;;;;5094124;28;20463;-64
2021/06/03 08:12:07;;;;;;;12.57;5.55;;;563.50;1152.00;;;;;;5093890;28;20016;-64
2021/06/03 08:14:33;;;;;;;11.05;6.60;;;563.50;1075.20;;;;;;5094063;28;20056;-63
2021/06/03 08:16:59;;;;;;;20.90;10.75;;;563.40;1126.40;;;;;;5093900;28;20501;-65
2021/06/03 08:19:25;;;;;;;11.10;6.03;;;;;;;;;;5089808;28;20039;-66
2021/06/03 08:21:51;;;;;;;21.45;10.88;;;;;;;;;;5093592;28;20433;-63
2021/06/03 08:24:17;;;;;;;21.63;9.15;;;563.80;1126.40;;;;;;5093610;28;20035;-63
2021/06/03 08:26:46;;;;;;;14.63;6.10;;;563.70;1203.20;;;;;;5093943;28;20068;-60
2021/06/03 08:29:11;;;;;;;7.78;4.38;;;563.90;1126.40;;;;;;5093517;28;20024;-66
2021/06/03 08:31:37;;;;;;;11.23;6.30;;;563.80;1075.20;;;;;;5093249;28;20032;-62
2021/06/03 08:34:04;;;;;;;14.07;7.28;;;563.80;1228.80;;;;;;5093521;28;20494;-61
2021/06/03 08:36:30;;;;;;;10.23;5.43;;;;;;;;;;5093318;28;20474;-63
2021/06/03 08:38:56;;;;;;;14.48;6.05;;;;;;;;;;5092139;28;20060;-60
2021/06/03 08:41:23;;;;;;;6.80;4.22;;;;;;;;;;5093058;28;20106;-60
2021/06/03 08:43:49;;;;;;;9.43;4.10;;;;;;;;;;5093094;28;20077;-60
2021/06/03 08:46:15;;;;;;;6.60;4.93;;;589.10;972.80;;;;;;5093369;28;20474;-61
2021/06/03 08:48:41;;;;;;;23.50;7.13;;;589.00;998.40;;;;;;5082352;28;20110;-60
2021/06/03 08:51:07;;;;;;;7.93;4.90;;;589.00;1049.60;;;;;;5093227;28;20118;-61
2021/06/03 08:53:33;;;;;;;10.30;5.35;;;588.90;1075.20;;;;;;5092868;28;20099;-61
2021/06/03 08:56:19;;;;;;;8.65;5.18;;;588.90;1049.60;;;;;;5093405;28;20024;-63
2021/06/03 08:58:52;;;;;;;6.95;4.07;;;589.10;1049.60;;;;;;5093075;28;20028;-64
2021/06/03 09:01:18;;;;;;;7.68;4.85;;;;;;;;;;5093201;28;20024;-65
2021/06/03 09:03:44;;;;;;;9.27;3.60;;;589.40;972.80;;;;;;5092714;28;20039;-62
2021/06/03 09:06:13;;;;;;;9.60;5.47;;;589.40;947.20;;;;;;5092650;28;20043;-62
2021/06/03 09:08:41;;;;;;;11.20;6.05;;;589.30;1152.00;;;;;;5092991;28;20038;-62
2021/06/03 09:11:14;;;;;;;8.13;4.30;;;589.30;1126.40;;;;;;5092716;28;20023;-64
2021/06/03 09:13:52;;;;;;;10.43;5.20;;;589.30;947.20;;;;;;5092694;28;20024;-66
2021/06/03 09:16:26;;;;;;;8.30;5.57;;;;;;;;;;5092737;28;20028;-66
2021/06/03 09:18:54;;;;;;;15.05;7.38;;;;;;;;;;5088859;28;20382;-62
2021/06/03 09:21:23;;;;;;;7.72;5.15;;;;;;;;;;5092447;28;20024;-63
2021/06/03 09:24:10;;;;;;;10.88;6.07;;;;;;;;;;5092713;28;20044;-64
2021/06/03 09:26:45;;;;;;;5.82;4.25;;;;;;;;;;5092573;28;20054;-64
2021/06/03 09:29:12;;;;;;;13.52;5.95;;;;;;;;;;5092526;28;20024;-64
2021/06/03 09:31:39;;;;;;;8.27;5.30;;;614.50;998.40;;;;;;5092231;28;20078;-63
2021/06/03 09:34:08;;;;;;;11.05;4.80;;;;;;;;;;5092466;28;20027;-70
2021/06/03 09:36:33;;;;;;;7.10;3.97;;;615.00;896.00;;;;;;5092402;28;20099;-63
2021/06/03 09:39:00;;;;;;;10.32;5.80;;;;;;;;;;5092511;28;20575;-64
2021/06/03 09:41:27;;;;;;;9.60;5.30;;;;;;;;;;5092086;28;20024;-62
2021/06/03 09:44:13;;;;;;;13.07;6.20;;;;;;;;;;5092079;28;20059;-65
2021/06/03 09:46:41;;;;;;;14.35;5.53;;;;;;;;;;5092256;28;20099;-64
2021/06/03 09:49:13;;;;;;;7.75;5.18;;;;;;;;;;5077285;28;20020;-65
2021/06/03 09:51:39;;;;;;;9.63;4.88;;;;;;;;;;5085074;28;20031;-61
2021/06/03 09:54:13;;;;;;;8.73;5.18;;;;;;;;;;5092151;28;20097;-62
2021/06/03 09:56:40;;;;;;;11.05;4.90;;;;;;;;;;5092240;28;20028;-63
2021/06/03 09:59:08;;;;;;;12.93;6.53;;;;;;;;;;5074209;28;20039;-61
2021/06/03 10:01:53;;;;;;;10.23;4.90;;;;;;;;;;5072055;28;20088;-63
2021/06/03 10:04:25;;;;;;;10.18;4.53;;;640.40;870.40;;;;;;5072873;28;20036;-63
2021/06/03 10:07:15;;;;;;;7.43;4.80;;;640.20;870.40;;;;;;5091879;28;20030;-67
2021/06/03 10:09:45;;;;;;;8.40;4.57;;;640.20;998.40;;;;;;5010122;28;20515;-64
2021/06/03 10:12:26;;;;;;;11.43;4.10;;;;;;;;;;5009789;28;20493;-61
2021/06/03 10:15:00;;;;;;;7.03;3.83;;;;;;;;;;5009951;28;20759;-62
2021/06/03 10:17:33;;;;;;;8.43;3.58;;;;;;;;;;5009218;28;20055;-65
2021/06/03 10:20:00;;;;;;;7.90;4.40;;;;;;;;;;5008102;28;20030;-66
2021/06/03 10:22:27;;;;;;;6.80;4.88;;;;;;;;;;5009866;28;20112;-64
2021/06/03 10:24:59;;;;;;;10.93;4.40;;;;;;;;;;5009781;28;20152;-61
2021/06/03 10:27:26;;;;;;;11.32;4.85;;;;;;;;;;5009243;28;20053;-62
2021/06/03 10:29:53;;;;;;;9.07;4.53;;;;;;;;;;5009449;28;20033;-67
2021/06/03 10:32:21;;;;;;;6.20;4.88;;;;;;;;;;5001618;28;20034;-63
2021/06/03 10:34:47;;;;;;;8.43;4.57;;;;;;;;;;4986655;28;20038;-63
2021/06/03 10:37:14;;;;;;;11.30;4.45;;;;;;;;;;5009466;28;20034;-63
2021/06/03 10:39:41;;;;;;;8.88;4.45;;;;;;;;;;5009284;28;20088;-64
2021/06/03 10:42:10;;;;;;;6.63;4.70;;;;;;;;;;5008918;28;20046;-65
2021/06/03 10:44:36;;;;;;;10.30;4.82;;;;;;;;;;5009124;28;20077;-66
2021/06/03 10:47:02;;;;;;;8.73;5.03;;;;;;;;;;5062780;28;20032;-62
2021/06/03 10:49:31;;;;;;;11.95;5.43;;;;;;;;;;5082857;28;20032;-65
2021/06/03 10:51:58;;;;;;;7.88;4.35;;;;;;;;;;5091199;28;20016;-65
2021/06/03 10:54:39;;;;;;;7.45;4.35;;;;;;;;;;5091402;28;20074;-64
2021/06/03 10:57:06;;;;;;;7.18;4.60;;;;;;;;;;5091505;28;20024;-63
2021/06/03 10:59:32;;;;;;;5.47;4.35;;;;;;;;;;5091135;28;20492;-62
2021/06/03 11:01:59;;;;;;;7.82;4.68;;;;;;;;;;5091485;28;20028;-60
2021/06/03 11:04:29;;;;;;;10.05;5.32;;;;;;;;;;5094498;28;20090;-61
2021/06/03 11:06:56;;;;;;;5.95;3.60;;;;;;;;;;5094870;28;20028;-62
2021/06/03 11:09:33;;;;;;;6.60;4.00;;;666.30;844.80;;;;;;5094538;28;20031;-61
2021/06/03 11:12:26;;;;;;;10.23;5.40;;;;;;;;;;5094463;28;20063;-60
2021/06/03 11:14:58;;;;;;;7.70;4.32;;;;;;;;;;5060411;28;20426;-61
2021/06/03 11:17:44;;;;;;;10.15;4.50;;;;;;;;;;5062146;28;20032;-62
2021/06/03 11:20:10;;;;;;;7.97;4.57;;;;;;;;;;5047223;28;20491;-62
2021/06/03 11:22:37;;;;;;;10.68;6.45;;;;;;;;;;5054403;28;20029;-62
2021/06/03 11:25:04;;;;;;;8.32;4.63;;;;;;;;;;5056640;28;20565;-62
2021/06/03 11:27:40;;;;;;;9.65;5.13;;;;;;;;;;5056120;28;20028;-61
2021/06/03 11:30:10;;;;;;;8.27;5.10;;;;;;;;;;5057786;28;20127;-62
2021/06/03 11:32:42;;;;;;;7.65;4.57;;;;;;;;;;5055363;28;20091;-62
2021/06/03 11:35:10;;;;;;;9.15;4.60;;;;;;;;;;5056140;28;20091;-62
2021/06/03 11:37:36;;;;;;;12.77;4.90;;;;;;;;;;5054737;28;20108;-64
2021/06/03 11:40:08;;;;;;;9.18;5.28;;;;;;;;;;5056263;28;20086;-62
2021/06/03 11:42:35;;;;;;;11.05;7.07;;;;;;;;;;5054524;28;20063;-61
2021/06/03 11:45:04;;;;;;;18.08;11.93;;;;;;;;;;5054060;28;20539;-62
2021/06/03 11:47:55;;;;;;;8.77;6.72;;;;;;;;;;5073971;28;20062;-63
2021/06/03 11:50:21;;;;;;;32.05;21.73;;;;;;;;;;5070575;28;20032;-63
2021/06/03 11:52:59;;;;;;;10.57;6.70;;;;;;;;;;5081486;28;20110;-62
2021/06/03 11:55:28;;;;;;;58.13;42.85;;;;;;;;;;5070247;28;20029;-63
2021/06/03 11:58:13;;;;;;;60.35;44.00;;;;;;;;;;5062532;28;20093;-61
2021/06/03 12:00:40;;;;;;;25.88;13.85;;;;;;;;;;5073673;28;20352;-59
2021/06/03 12:03:25;;;;;;;18.77;11.45;;;;;;;;;;5067300;28;20037;-59
2021/06/03 12:05:56;;;;;;;15.25;7.93;;;;;;;;;;5088038;28;20441;-59
2021/06/03 12:08:31;;;;;;;7.28;5.20;;;;;;;;;;5072987;28;20024;-59
2021/06/03 12:10:57;;;;;;;25.85;13.77;;;640.90;844.80;;;;;;5073239;28;20032;-59
2021/06/03 12:13:23;;;;;;;26.38;18.17;;;640.60;870.40;;;;;;5068275;28;20024;-59
2021/06/03 12:15:49;;;;;;;10.20;5.70;;;640.70;896.00;;;;;;5073719;28;20027;-59
2021/06/03 12:18:14;;;;;;;9.90;7.85;;;640.60;870.40;;;;;;5073443;28;20013;-59
2021/06/03 12:20:41;;;;;;;26.27;18.30;;;640.70;896.00;;;;;;5078328;28;20086;-59
2021/06/03 12:23:09;;;;;;;30.02;16.17;;;640.70;896.00;;;;;;5073110;28;20479;-58
2021/06/03 12:25:36;;;;;;;15.65;11.77;;;640.90;896.00;;;;;;5073447;28;20024;-59
2021/06/03 12:28:03;;;;;;;13.85;10.45;;;665.90;896.00;;;;;;5071966;28;20032;-60
2021/06/03 12:30:33;;;;;;;24.67;18.27;;;665.90;870.40;;;;;;5073309;28;20031;-59
2021/06/03 12:33:09;;;;;;;22.23;16.35;;;665.90;972.80;;;;;;5073383;28;20016;-59
2021/06/03 12:35:46;;;;;;;16.25;12.38;;;665.90;896.00;;;;;;5071920;28;20024;-62
2021/06/03 12:38:30;;;;;;;15.98;11.82;;;665.90;947.20;;;;;;5073125;28;20385;-59
2021/06/03 12:40:58;;;;;;;17.98;8.82;;;665.90;972.80;;;;;;5057616;28;20507;-67
2021/06/03 12:43:24;;;;;;;15.18;9.80;;;665.90;921.60;;;;;;5066540;28;20051;-64
2021/06/03 12:45:50;;;;;;;8.88;6.13;;;666.00;921.60;;;;;;5060554;28;20108;-59
2021/06/03 12:48:17;;;;;;;13.18;6.20;;;666.10;870.40;;;;;;5072708;28;20092;-63
2021/06/03 12:50:51;;;;;;;11.95;7.57;;;666.20;844.80;;;;;;5079845;28;20036;-67
2021/06/03 12:53:19;;;;;;;14.82;9.68;;;666.20;896.00;;;;;;5054825;28;20108;-67
2021/06/03 12:55:46;;;;;;;18.67;10.23;;;666.00;921.60;;;;;;5060476;28;20103;-59
2021/06/03 12:58:15;;;;;;;15.88;9.38;;;665.90;947.20;;;;;;5055043;28;20120;-61
2021/06/03 13:00:43;;;;;;;7.90;5.93;;;666.00;947.20;;;;;;5056251;28;20024;-62
2021/06/03 13:03:21;;;;;;;9.32;4.93;;;666.10;870.40;;;;;;5064689;28;20043;-62
2021/06/03 13:06:06;;;;;;;11.00;5.40;;;666.10;896.00;;;;;;5067998;28;20104;-59
2021/06/03 13:09:01;;;;;;;11.15;6.43;;;666.10;870.40;;;;;;5067523;28;20111;-60
2021/06/03 13:11:29;;;;;;;12.80;6.28;;;;;;;;;;5090542;28;20028;-60
2021/06/03 13:13:55;;;;;;;13.27;6.88;;;;;;;;;;5092821;28;20486;-59
2021/06/03 13:16:22;;;;;;;10.38;7.07;;;;;;;;;;5092504;28;20028;-59
2021/06/03 13:18:48;;;;;;;10.40;4.75;;;;;;;;;;5090232;28;20394;-66
2021/06/03 13:21:14;;;;;;;12.30;6.57;;;;;;;;;;5092242;28;20413;-59
2021/06/03 13:23:41;;;;;;;13.73;7.03;;;;;;;;;;5081767;28;20036;-58
2021/06/03 13:26:07;;;;;;;13.60;5.20;;;;;;;;;;5084606;28;20016;-59
2021/06/03 13:28:33;;;;;;;9.13;5.07;;;;;;;;;;5092332;28;20513;-59
2021/06/03 13:31:01;;;;;;;10.15;6.35;;;;;;;;;;5084438;28;20459;-60
2021/06/03 13:33:29;;;;;;;8.07;6.25;;;;;;;;;;5089127;28;20028;-60
2021/06/03 13:36:03;;;;;;;17.00;12.80;;;;;;;;;;5092521;28;20485;-60
2021/06/03 13:38:29;;;;;;;12.50;8.75;;;;;;;;;;5083446;28;20025;-60
2021/06/03 13:40:58;;;;;;;14.63;8.20;;;;;;;;;;5066282;28;20033;-59
2021/06/03 13:43:26;;;;;;;12.82;7.88;;;;;;;;;;5071564;28;20036;-59
2021/06/03 13:45:53;;;;;;;30.38;23.00;;;;;;;;;;5064399;28;20088;-58
2021/06/03 13:48:24;;;;;;;10.52;6.07;;;;;;;;;;5073361;28;20517;-60
2021/06/03 13:51:00;;;;;;;13.53;6.80;;;;;;;;;;5066707;28;20056;-59
2021/06/03 13:53:26;;;;;;;21.77;8.55;;;;;;;;;;5071852;28;20029;-59
2021/06/03 13:55:57;;;;;;;12.45;6.63;;;;;;;;;;5070560;28;20024;-59
2021/06/03 13:58:30;;;;;;;57.10;42.58;;;;;;;;;;5072292;28;20034;-59
2021/06/03 14:01:09;;;;;;;96.65;79.70;;;;;;;;;;5071678;28;20025;-60
2021/06/03 14:03:56;;;;;;;64.55;48.47;;;;;;;;;;5071465;28;20475;-60
2021/06/03 14:06:42;;;;;;;25.38;14.15;;;;;;;;;;5090093;28;20020;-59
2021/06/03 14:09:20;;;;;;;13.13;6.95;;;;;;;;;;5091955;28;20085;-60
2021/06/03 14:14:23;;;;;;;18.60;14.35;;;;;;;;;;5080896;28;20052;-60
2021/06/03 14:16:51;;;;;;;16.67;12.52;;;;;;;;;;5071852;28;20073;-60